sensor_id;sensor_type;location;lat;lon;timestamp;pressure;altitude;pressure_sealevel;temperature;humidity
71195;BME280;58908;51.426;7.714;2023-05-19T00:01:33;100766.19;;;6.46;100.00
71195;BME280;58908;51.426;7.714;2023-05-19T00:04:02;100759.69;;;6.60;100.00
71195;BME280;58908;51.426;7.714;2023-05-19T00:06:30;100762.34;;;6.59;100.00
71195;BME280;58908;51.426;7.714;2023-05-19T00:08:57;100760.84;;;6.50;100.00
71195;BME280;58908;51.426;7.714;2023-05-19T00:11:24;100747.59;;;6.55;100.00
71195;BME280;58908;51.426;7.714;2023-05-19T00:13:51;100749.38;;;6.53;100.00
71195;BME280;58908;51.426;7.714;2023-05-19T00:16:18;100751.41;;;6.42;100.00
71195;BME280;58908;51.426;7.714;2023-05-19T00:18:46;100744.56;;;6.36;100.00
71195;BME280;58908;51.426;7.714;2023-05-19T00:21:13;100755.25;;;6.29;100.00
71195;BME280;58908;51.426;7.714;2023-05-19T00:23:39;100745.78;;;6.22;100.00
71195;BME280;58908;51.426;7.714;2023-05-19T00:26:05;100747.66;;;6.18;100.00
71195;BME280;58908;51.426;7.714;2023-05-19T00:28:32;100748.69;;;6.10;100.00
71195;BME280;58908;51.426;7.714;2023-05-19T00:30:58;100750.41;;;6.12;100.00
71195;BME280;58908;51.426;7.714;2023-05-19T00:33:25;100752.94;;;6.15;100.00
71195;BME280;58908;51.426;7.714;2023-05-19T00:35:52;100758.34;;;6.08;100.00
71195;BME280;58908;51.426;7.714;2023-05-19T00:38:19;100753.31;;;5.99;100.00
71195;BME280;58908;51.426;7.714;2023-05-19T00:40:45;100752.66;;;5.91;100.00
71195;BME280;58908;51.426;7.714;2023-05-19T00:43:11;100752.66;;;5.91;100.00
71195;BME280;58908;51.426;7.714;2023-05-19T00:45:38;100751.94;;;5.84;100.00
71195;BME280;58908;51.426;7.714;2023-05-19T00:48:04;100747.66;;;5.80;100.00
71195;BME280;58908;51.426;7.714;2023-05-19T00:50:30;100758.16;;;5.77;100.00
71195;BME280;58908;51.426;7.714;2023-05-19T00:52:58;100753.03;;;5.73;100.00
71195;BME280;58908;51.426;7.714;2023-05-19T00:55:25;100753.13;;;5.68;100.00
71195;BME280;58908;51.426;7.714;2023-05-19T00:57:53;100755.63;;;5.73;100.00
71195;BME280;58908;51.426;7.714;2023-05-19T01:00:20;100753.13;;;5.68;100.00
71195;BME280;58908;51.426;7.714;2023-05-19T01:02:47;100754.13;;;5.63;100.00
71195;BME280;58908;51.426;7.714;2023-05-19T01:05:14;100750.50;;;5.68;100.00
71195;BME280;58908;51.426;7.714;2023-05-19T01:07:41;100754.84;;;5.69;100.00
71195;BME280;58908;51.426;7.714;2023-05-19T01:10:09;100754.00;;;5.69;100.00
71195;BME280;58908;51.426;7.714;2023-05-19T01:12:35;100749.59;;;5.69;100.00
71195;BME280;58908;51.426;7.714;2023-05-19T01:15:02;100755.91;;;5.61;100.00
71195;BME280;58908;51.426;7.714;2023-05-19T01:17:34;100750.91;;;5.50;100.00
71195;BME280;58908;51.426;7.714;2023-05-19T01:20:06;100747.59;;;5.42;100.00
71195;BME280;58908;51.426;7.714;2023-05-19T01:22:39;100745.91;;;5.38;100.00
71195;BME280;58908;51.426;7.714;2023-05-19T01:25:22;100746.94;;;5.31;100.00
71195;BME280;58908;51.426;7.714;2023-05-19T01:27:55;100748.78;;;5.26;100.00
71195;BME280;58908;51.426;7.714;2023-05-19T01:30:30;100750.56;;;5.24;100.00
71195;BME280;58908;51.426;7.714;2023-05-19T01:32:59;100744.50;;;5.24;100.00
71195;BME280;58908;51.426;7.714;2023-05-19T01:35:26;100743.69;;;5.19;100.00
71195;BME280;58908;51.426;7.714;2023-05-19T01:37:54;100746.31;;;5.19;100.00
71195;BME280;58908;51.426;7.714;2023-05-19T01:40:21;100748.16;;;5.14;100.00
71195;BME280;58908;51.426;7.714;2023-05-19T01:42:47;100745.66;;;5.09;100.00
71195;BME280;58908;51.426;7.714;2023-05-19T01:45:15;100744.75;;;5.10;100.00
71195;BME280;58908;51.426;7.714;2023-05-19T01:47:45;100737.78;;;5.11;100.00
71195;BME280;58908;51.426;7.714;2023-05-19T01:50:12;100748.19;;;5.12;100.00
71195;BME280;58908;51.426;7.714;2023-05-19T01:52:38;100735.03;;;5.15;100.00
71195;BME280;58908;51.426;7.714;2023-05-19T01:55:05;100739.22;;;5.25;100.00
71195;BME280;58908;51.426;7.714;2023-05-19T01:57:32;100738.47;;;5.19;100.00
71195;BME280;58908;51.426;7.714;2023-05-19T02:00:06;100738.63;;;5.10;100.00
71195;BME280;58908;51.426;7.714;2023-05-19T02:02:37;100742.25;;;5.04;100.00
71195;BME280;58908;51.426;7.714;2023-05-19T02:05:12;100743.19;;;5.02;100.00
71195;BME280;58908;51.426;7.714;2023-05-19T02:07:43;100739.91;;;4.91;100.00
71195;BME280;58908;51.426;7.714;2023-05-19T02:10:14;100739.00;;;4.92;100.00
71195;BME280;58908;51.426;7.714;2023-05-19T02:12:43;100752.03;;;4.93;100.00
71195;BME280;58908;51.426;7.714;2023-05-19T02:15:12;100747.00;;;4.84;100.00
71195;BME280;58908;51.426;7.714;2023-05-19T02:17:40;100747.84;;;4.85;100.00
71195;BME280;58908;51.426;7.714;2023-05-19T02:20:07;100753.16;;;4.82;100.00
71195;BME280;58908;51.426;7.714;2023-05-19T02:22:35;100749.63;;;4.84;100.00
71195;BME280;58908;51.426;7.714;2023-05-19T02:25:01;100755.09;;;4.71;100.00
71195;BME280;58908;51.426;7.714;2023-05-19T02:27:27;100750.75;;;4.70;100.00
71195;BME280;58908;51.426;7.714;2023-05-19T02:29:54;100757.78;;;4.65;100.00
71195;BME280;58908;51.426;7.714;2023-05-19T02:32:20;100752.66;;;4.60;100.00
71195;BME280;58908;51.426;7.714;2023-05-19T02:34:46;100757.91;;;4.59;100.00
71195;BME280;58908;51.426;7.714;2023-05-19T02:37:13;100751.09;;;4.51;100.00
71195;BME280;58908;51.426;7.714;2023-05-19T02:39:41;100751.28;;;4.39;100.00
71195;BME280;58908;51.426;7.714;2023-05-19T02:42:07;100755.72;;;4.35;100.00
71195;BME280;58908;51.426;7.714;2023-05-19T02:44:33;100748.78;;;4.33;100.00
71195;BME280;58908;51.426;7.714;2023-05-19T02:47:00;100749.69;;;4.32;100.00
71195;BME280;58908;51.426;7.714;2023-05-19T02:49:26;100754.06;;;4.28;100.00
71195;BME280;58908;51.426;7.714;2023-05-19T02:51:54;100748.91;;;4.25;100.00
71195;BME280;58908;51.426;7.714;2023-05-19T02:54:21;100750.84;;;4.14;100.00
71195;BME280;58908;51.426;7.714;2023-05-19T02:56:48;100754.47;;;4.06;100.00
71195;BME280;58908;51.426;7.714;2023-05-19T02:59:14;100751.84;;;4.06;100.00
71195;BME280;58908;51.426;7.714;2023-05-19T03:01:41;100757.03;;;4.07;100.00
71195;BME280;58908;51.426;7.714;2023-05-19T03:04:07;100747.53;;;4.02;100.00
71195;BME280;58908;51.426;7.714;2023-05-19T03:06:33;100758.09;;;3.96;100.00
71195;BME280;58908;51.426;7.714;2023-05-19T03:09:00;100758.22;;;3.87;100.00
71195;BME280;58908;51.426;7.714;2023-05-19T03:11:26;100752.94;;;3.88;100.00
71195;BME280;58908;51.426;7.714;2023-05-19T03:13:54;100753.88;;;3.86;100.00
71195;BME280;58908;51.426;7.714;2023-05-19T03:16:21;100752.03;;;3.92;100.00
71195;BME280;58908;51.426;7.714;2023-05-19T03:18:47;100747.78;;;3.87;100.00
71195;BME280;58908;51.426;7.714;2023-05-19T03:21:13;100741.31;;;4.10;100.00
71195;BME280;58908;51.426;7.714;2023-05-19T03:23:40;100738.59;;;4.16;100.00
71195;BME280;58908;51.426;7.714;2023-05-19T03:26:06;100744.72;;;4.15;100.00
71195;BME280;58908;51.426;7.714;2023-05-19T03:28:32;100742.19;;;4.09;100.00
71195;BME280;58908;51.426;7.714;2023-05-19T03:31:00;100742.19;;;4.11;100.00
71195;BME280;58908;51.426;7.714;2023-05-19T03:33:26;100741.31;;;4.10;100.00
71195;BME280;58908;51.426;7.714;2023-05-19T03:35:53;100740.59;;;4.02;100.00
71195;BME280;58908;51.426;7.714;2023-05-19T03:38:20;100741.44;;;4.03;100.00
71195;BME280;58908;51.426;7.714;2023-05-19T03:40:47;100737.22;;;3.94;100.00
71195;BME280;58908;51.426;7.714;2023-05-19T03:43:13;100745.03;;;3.94;100.00
71195;BME280;58908;51.426;7.714;2023-05-19T03:45:40;100744.09;;;4.01;100.00
71195;BME280;58908;51.426;7.714;2023-05-19T03:48:07;100740.59;;;3.99;100.00
71195;BME280;58908;51.426;7.714;2023-05-19T03:50:34;100751.81;;;4.07;100.00
71195;BME280;58908;51.426;7.714;2023-05-19T03:53:02;100745.66;;;4.11;100.00
71195;BME280;58908;51.426;7.714;2023-05-19T03:55:28;100743.88;;;4.13;100.00
71195;BME280;58908;51.426;7.714;2023-05-19T03:57:54;100751.75;;;4.10;100.00
71195;BME280;58908;51.426;7.714;2023-05-19T04:00:21;100741.31;;;4.10;100.00
71195;BME280;58908;51.426;7.714;2023-05-19T04:02:47;100745.75;;;4.07;100.00
71195;BME280;58908;51.426;7.714;2023-05-19T04:05:15;100748.22;;;4.14;100.00
71195;BME280;58908;51.426;7.714;2023-05-19T04:07:41;100751.94;;;3.98;100.00
71195;BME280;58908;51.426;7.714;2023-05-19T04:10:09;100750.09;;;4.05;100.00
71195;BME280;58908;51.426;7.714;2023-05-19T04:12:35;100758.72;;;4.11;100.00
71195;BME280;58908;51.426;7.714;2023-05-19T04:15:01;100756.94;;;4.12;100.00
71195;BME280;58908;51.426;7.714;2023-05-19T04:17:28;100760.44;;;4.11;100.00
71195;BME280;58908;51.426;7.714;2023-05-19T04:19:54;100753.38;;;4.17;100.00
71195;BME280;58908;51.426;7.714;2023-05-19T04:22:22;100760.28;;;4.21;100.00
71195;BME280;58908;51.426;7.714;2023-05-19T04:24:48;100756.69;;;4.30;100.00
71195;BME280;58908;51.426;7.714;2023-05-19T04:27:15;100760.19;;;4.29;100.00
71195;BME280;58908;51.426;7.714;2023-05-19T04:29:42;100758.41;;;4.31;100.00
71195;BME280;58908;51.426;7.714;2023-05-19T04:32:10;100751.28;;;4.39;100.00
71195;BME280;58908;51.426;7.714;2023-05-19T04:34:41;100755.66;;;4.37;100.00
71195;BME280;58908;51.426;7.714;2023-05-19T04:37:09;100752.03;;;4.47;100.00
71195;BME280;58908;51.426;7.714;2023-05-19T04:39:36;100752.00;;;4.48;100.00
71195;BME280;58908;51.426;7.714;2023-05-19T04:42:05;100747.69;;;4.47;100.00
71195;BME280;58908;51.426;7.714;2023-05-19T04:44:32;100751.06;;;4.52;100.00
71195;BME280;58908;51.426;7.714;2023-05-19T04:46:59;100757.94;;;4.57;100.00
71195;BME280;58908;51.426;7.714;2023-05-19T04:49:25;100753.59;;;4.57;100.00
71195;BME280;58908;51.426;7.714;2023-05-19T04:51:51;100748.13;;;4.70;100.00
71195;BME280;58908;51.426;7.714;2023-05-19T04:54:18;100760.16;;;4.78;100.00
71195;BME280;58908;51.426;7.714;2023-05-19T04:56:45;100761.72;;;4.88;100.00
71195;BME280;58908;51.426;7.714;2023-05-19T04:59:11;100753.59;;;5.03;100.00
71195;BME280;58908;51.426;7.714;2023-05-19T05:01:38;100760.34;;;5.15;100.00
71195;BME280;58908;51.426;7.714;2023-05-19T05:04:04;100753.09;;;5.29;100.00
71195;BME280;58908;51.426;7.714;2023-05-19T05:06:31;100751.81;;;5.48;100.00
71195;BME280;58908;51.426;7.714;2023-05-19T05:08:57;100754.22;;;5.58;100.00
71195;BME280;58908;51.426;7.714;2023-05-19T05:11:24;100754.03;;;5.67;100.00
71195;BME280;58908;51.426;7.714;2023-05-19T05:13:52;100740.81;;;5.73;100.00
71195;BME280;58908;51.426;7.714;2023-05-19T05:16:22;100750.25;;;5.80;100.00
71195;BME280;58908;51.426;7.714;2023-05-19T05:18:48;100752.84;;;5.83;100.00
71195;BME280;58908;51.426;7.714;2023-05-19T05:21:15;100746.59;;;5.89;100.00
71195;BME280;58908;51.426;7.714;2023-05-19T05:23:41;100755.00;;;6.03;100.00
71195;BME280;58908;51.426;7.714;2023-05-19T05:26:08;100752.94;;;6.15;100.00
71195;BME280;58908;51.426;7.714;2023-05-19T05:28:35;100752.50;;;6.35;100.00
71195;BME280;58908;51.426;7.714;2023-05-19T05:31:03;100754.75;;;6.48;100.00
71195;BME280;58908;51.426;7.714;2023-05-19T05:33:29;100756.94;;;6.65;100.00
71195;BME280;58908;51.426;7.714;2023-05-19T05:35:55;100757.50;;;6.77;100.00
71195;BME280;58908;51.426;7.714;2023-05-19T05:38:22;100750.19;;;6.90;100.00
71195;BME280;58908;51.426;7.714;2023-05-19T05:40:48;100750.56;;;7.06;100.00
71195;BME280;58908;51.426;7.714;2023-05-19T05:43:14;100756.31;;;7.20;100.00
71195;BME280;58908;51.426;7.714;2023-05-19T05:45:40;100751.44;;;7.37;100.00
71195;BME280;58908;51.426;7.714;2023-05-19T05:48:08;100749.28;;;7.51;100.00
71195;BME280;58908;51.426;7.714;2023-05-19T05:50:35;100742.50;;;7.73;100.00
71195;BME280;58908;51.426;7.714;2023-05-19T05:53:01;100737.16;;;8.04;100.00
71195;BME280;58908;51.426;7.714;2023-05-19T05:55:28;100735.16;;;8.39;100.00
71195;BME280;58908;51.426;7.714;2023-05-19T05:57:55;100740.81;;;8.53;100.00
71195;BME280;58908;51.426;7.714;2023-05-19T06:00:22;100731.78;;;8.62;100.00
71195;BME280;58908;51.426;7.714;2023-05-19T06:02:51;100730.91;;;8.61;100.00
71195;BME280;58908;51.426;7.714;2023-05-19T06:05:19;100730.25;;;9.05;100.00
71195;BME280;58908;51.426;7.714;2023-05-19T06:07:45;100730.06;;;9.10;100.00
71195;BME280;58908;51.426;7.714;2023-05-19T06:10:11;100726.00;;;9.01;100.00
71195;BME280;58908;51.426;7.714;2023-05-19T06:12:38;100726.91;;;9.00;100.00
71195;BME280;58908;51.426;7.714;2023-05-19T06:15:06;100726.13;;;9.21;100.00
71195;BME280;58908;51.426;7.714;2023-05-19T06:17:32;100727.59;;;9.52;100.00
71195;BME280;58908;51.426;7.714;2023-05-19T06:19:59;100717.59;;;10.89;100.00
71195;BME280;58908;51.426;7.714;2023-05-19T06:22:27;100714.81;;;12.24;100.00
71195;BME280;58908;51.426;7.714;2023-05-19T06:24:53;100706.38;;;12.86;100.00
71195;BME280;58908;51.426;7.714;2023-05-19T06:27:19;100704.19;;;13.91;93.49
71195;BME280;58908;51.426;7.714;2023-05-19T06:29:46;100697.66;;;13.18;93.44
71195;BME280;58908;51.426;7.714;2023-05-19T06:32:12;100697.22;;;13.73;90.26
71195;BME280;58908;51.426;7.714;2023-05-19T06:34:38;100692.06;;;14.47;85.25
71195;BME280;58908;51.426;7.714;2023-05-19T06:37:05;100693.84;;;14.18;85.41
71195;BME280;58908;51.426;7.714;2023-05-19T06:39:33;100686.00;;;14.15;86.02
71195;BME280;58908;51.426;7.714;2023-05-19T06:41:59;100697.41;;;13.86;84.93
71195;BME280;58908;51.426;7.714;2023-05-19T06:44:25;100691.44;;;14.87;81.80
71195;BME280;58908;51.426;7.714;2023-05-19T06:46:51;100684.28;;;14.44;81.41
71195;BME280;58908;51.426;7.714;2023-05-19T06:49:18;100685.19;;;14.59;81.09
71195;BME280;58908;51.426;7.714;2023-05-19T06:51:44;100684.97;;;16.03;78.91
71195;BME280;58908;51.426;7.714;2023-05-19T06:54:10;100684.97;;;15.49;79.82
71195;BME280;58908;51.426;7.714;2023-05-19T06:56:41;100683.50;;;15.01;79.76
71195;BME280;58908;51.426;7.714;2023-05-19T06:59:07;100681.81;;;14.11;79.12
71195;BME280;58908;51.426;7.714;2023-05-19T07:01:33;100684.09;;;14.77;78.39
71195;BME280;58908;51.426;7.714;2023-05-19T07:03:59;100678.38;;;15.12;76.83
71195;BME280;58908;51.426;7.714;2023-05-19T07:06:26;100680.19;;;15.82;74.64
71195;BME280;58908;51.426;7.714;2023-05-19T07:08:52;100680.50;;;16.44;74.27
71195;BME280;58908;51.426;7.714;2023-05-19T07:11:18;100682.50;;;15.32;76.33
71195;BME280;58908;51.426;7.714;2023-05-19T07:13:46;100680.19;;;16.49;74.14
71195;BME280;58908;51.426;7.714;2023-05-19T07:16:13;100679.63;;;16.17;73.10
71195;BME280;58908;51.426;7.714;2023-05-19T07:18:39;100669.75;;;16.97;71.20
71195;BME280;58908;51.426;7.714;2023-05-19T07:21:05;100670.16;;;16.79;71.75
71195;BME280;58908;51.426;7.714;2023-05-19T07:23:32;100667.16;;;16.71;70.91
71195;BME280;58908;51.426;7.714;2023-05-19T07:25:58;100675.69;;;16.37;72.96
71195;BME280;58908;51.426;7.714;2023-05-19T07:28:24;100659.09;;;16.97;73.27
71195;BME280;58908;51.426;7.714;2023-05-19T07:30:52;100653.41;;;17.64;69.16
71195;BME280;58908;51.426;7.714;2023-05-19T07:33:18;100665.22;;;15.53;74.78
71195;BME280;58908;51.426;7.714;2023-05-19T07:35:45;100668.06;;;16.45;74.25
71195;BME280;58908;51.426;7.714;2023-05-19T07:38:11;100663.97;;;16.78;71.61
71195;BME280;58908;51.426;7.714;2023-05-19T07:40:37;100663.13;;;16.78;71.78
71195;BME280;58908;51.426;7.714;2023-05-19T07:43:03;100659.94;;;17.10;69.61
71195;BME280;58908;51.426;7.714;2023-05-19T07:45:29;100658.78;;;16.24;68.59
71195;BME280;58908;51.426;7.714;2023-05-19T07:47:57;100656.06;;;18.00;66.66
71195;BME280;58908;51.426;7.714;2023-05-19T07:50:23;100655.94;;;17.65;66.20
71195;BME280;58908;51.426;7.714;2023-05-19T07:52:50;100644.81;;;17.35;65.86
71195;BME280;58908;51.426;7.714;2023-05-19T07:55:17;100643.09;;;16.97;66.30
71195;BME280;58908;51.426;7.714;2023-05-19T07:57:43;100650.53;;;17.29;66.32
71195;BME280;58908;51.426;7.714;2023-05-19T08:00:09;100646.38;;;17.50;64.40
71195;BME280;58908;51.426;7.714;2023-05-19T08:02:36;100639.13;;;16.90;62.62
71195;BME280;58908;51.426;7.714;2023-05-19T08:05:04;100645.09;;;17.56;63.82
71195;BME280;58908;51.426;7.714;2023-05-19T08:07:30;100636.19;;;18.85;60.58
71195;BME280;58908;51.426;7.714;2023-05-19T08:09:57;100635.25;;;19.08;59.52
71195;BME280;58908;51.426;7.714;2023-05-19T08:12:23;100633.13;;;19.68;58.09
71195;BME280;58908;51.426;7.714;2023-05-19T08:14:49;100623.31;;;18.45;59.12
71195;BME280;58908;51.426;7.714;2023-05-19T08:17:16;100622.78;;;18.16;58.79
71195;BME280;58908;51.426;7.714;2023-05-19T08:19:43;100633.75;;;18.48;59.96
71195;BME280;58908;51.426;7.714;2023-05-19T08:22:11;100623.00;;;19.17;58.69
71195;BME280;58908;51.426;7.714;2023-05-19T08:24:37;100631.06;;;18.71;60.35
71195;BME280;58908;51.426;7.714;2023-05-19T08:27:06;100628.16;;;17.44;60.60
71195;BME280;58908;51.426;7.714;2023-05-19T08:29:32;100633.63;;;15.75;64.89
71195;BME280;58908;51.426;7.714;2023-05-19T08:31:58;100638.31;;;15.98;63.73
71195;BME280;58908;51.426;7.714;2023-05-19T08:34:26;100628.44;;;15.73;67.55
71195;BME280;58908;51.426;7.714;2023-05-19T08:36:52;100621.53;;;17.25;64.69
71195;BME280;58908;51.426;7.714;2023-05-19T08:39:22;100610.06;;;18.43;59.85
71195;BME280;58908;51.426;7.714;2023-05-19T08:41:51;100604.25;;;17.79;57.79
71195;BME280;58908;51.426;7.714;2023-05-19T08:44:17;100601.72;;;16.67;62.03
71195;BME280;58908;51.426;7.714;2023-05-19T08:46:43;100616.44;;;16.07;65.02
71195;BME280;58908;51.426;7.714;2023-05-19T08:49:10;100602.28;;;17.93;61.71
71195;BME280;58908;51.426;7.714;2023-05-19T08:51:38;100601.31;;;17.94;59.57
71195;BME280;58908;51.426;7.714;2023-05-19T08:54:08;100602.72;;;18.69;59.25
71195;BME280;58908;51.426;7.714;2023-05-19T08:56:39;100594.44;;;18.50;59.49
71195;BME280;58908;51.426;7.714;2023-05-19T08:59:05;100584.63;;;18.72;55.93
71195;BME280;58908;51.426;7.714;2023-05-19T09:01:32;100585.88;;;17.87;57.50
71195;BME280;58908;51.426;7.714;2023-05-19T09:03:59;100584.84;;;18.00;55.83
71195;BME280;58908;51.426;7.714;2023-05-19T09:06:25;100578.28;;;17.57;55.32
71195;BME280;58908;51.426;7.714;2023-05-19T09:08:52;100580.38;;;17.77;57.39
71195;BME280;58908;51.426;7.714;2023-05-19T09:11:18;100589.09;;;17.79;58.70
71195;BME280;58908;51.426;7.714;2023-05-19T09:13:47;100591.59;;;15.94;59.74
71195;BME280;58908;51.426;7.714;2023-05-19T09:16:15;100584.06;;;17.51;57.95
71195;BME280;58908;51.426;7.714;2023-05-19T09:18:44;100587.28;;;16.44;60.31
71195;BME280;58908;51.426;7.714;2023-05-19T09:21:18;100582.72;;;15.93;61.81
71195;BME280;58908;51.426;7.714;2023-05-19T09:23:44;100588.63;;;15.98;64.26
71195;BME280;58908;51.426;7.714;2023-05-19T09:26:13;100582.72;;;16.59;61.85
71195;BME280;58908;51.426;7.714;2023-05-19T09:28:40;100585.06;;;16.76;61.81
71195;BME280;58908;51.426;7.714;2023-05-19T09:31:07;100576.03;;;18.34;58.49
71195;BME280;58908;51.426;7.714;2023-05-19T09:33:34;100571.94;;;16.97;61.33
71195;BME280;58908;51.426;7.714;2023-05-19T09:36:01;100569.78;;;17.76;59.48
71195;BME280;58908;51.426;7.714;2023-05-19T09:38:29;100565.78;;;17.58;60.88
71195;BME280;58908;51.426;7.714;2023-05-19T09:40:55;100557.44;;;18.67;56.82
71195;BME280;58908;51.426;7.714;2023-05-19T09:43:22;100552.53;;;18.27;57.01
71195;BME280;58908;51.426;7.714;2023-05-19T09:45:49;100553.31;;;18.85;57.03
71195;BME280;58908;51.426;7.714;2023-05-19T09:48:21;100555.38;;;19.04;56.42
71195;BME280;58908;51.426;7.714;2023-05-19T09:50:47;100551.72;;;19.05;55.87
71195;BME280;58908;51.426;7.714;2023-05-19T09:53:15;100555.16;;;17.81;57.78
71195;BME280;58908;51.426;7.714;2023-05-19T09:55:42;100547.91;;;18.52;57.51
71195;BME280;58908;51.426;7.714;2023-05-19T09:58:09;100539.00;;;18.06;56.36
71195;BME280;58908;51.426;7.714;2023-05-19T10:00:36;100540.03;;;18.51;57.04
71195;BME280;58908;51.426;7.714;2023-05-19T10:03:02;100546.13;;;18.64;57.47
71195;BME280;58908;51.426;7.714;2023-05-19T10:05:31;100540.13;;;18.26;57.73
71195;BME280;58908;51.426;7.714;2023-05-19T10:07:57;100538.84;;;17.97;57.49
71195;BME280;58908;51.426;7.714;2023-05-19T10:10:24;100538.78;;;17.14;58.44
71195;BME280;58908;51.426;7.714;2023-05-19T10:12:52;100548.69;;;18.98;58.78
71195;BME280;58908;51.426;7.714;2023-05-19T10:15:19;100539.13;;;19.40;56.38
71195;BME280;58908;51.426;7.714;2023-05-19T10:17:45;100534.34;;;19.32;55.15
71195;BME280;58908;51.426;7.714;2023-05-19T10:20:12;100535.88;;;18.58;54.73
71195;BME280;58908;51.426;7.714;2023-05-19T10:22:41;100531.66;;;18.77;57.67
71195;BME280;58908;51.426;7.714;2023-05-19T10:25:08;100531.53;;;18.79;57.52
71195;BME280;58908;51.426;7.714;2023-05-19T10:27:36;100522.97;;;18.06;56.07
71195;BME280;58908;51.426;7.714;2023-05-19T10:30:04;100527.78;;;19.03;57.60
71195;BME280;58908;51.426;7.714;2023-05-19T10:32:33;100529.66;;;17.77;58.64
71195;BME280;58908;51.426;7.714;2023-05-19T10:35:07;100533.69;;;17.47;58.38
71195;BME280;58908;51.426;7.714;2023-05-19T10:37:40;100526.50;;;18.07;57.60
71195;BME280;58908;51.426;7.714;2023-05-19T10:40:09;100536.28;;;17.95;58.25
71195;BME280;58908;51.426;7.714;2023-05-19T10:42:39;100527.16;;;18.56;57.61
71195;BME280;58908;51.426;7.714;2023-05-19T10:45:10;100529.81;;;18.56;58.11
71195;BME280;58908;51.426;7.714;2023-05-19T10:47:39;100530.16;;;18.51;57.27
71195;BME280;58908;51.426;7.714;2023-05-19T10:50:06;100527.13;;;18.45;56.26
71195;BME280;58908;51.426;7.714;2023-05-19T10:52:35;100522.44;;;19.47;57.31
71195;BME280;58908;51.426;7.714;2023-05-19T10:55:02;100535.94;;;19.46;58.57
71195;BME280;58908;51.426;7.714;2023-05-19T10:57:30;100517.88;;;18.03;56.37
71195;BME280;58908;51.426;7.714;2023-05-19T10:59:57;100521.41;;;17.80;57.24
71195;BME280;58908;51.426;7.714;2023-05-19T11:02:37;100518.47;;;18.41;55.56
71195;BME280;58908;51.426;7.714;2023-05-19T11:05:07;100512.00;;;18.78;54.67
71195;BME280;58908;51.426;7.714;2023-05-19T11:07:34;100516.38;;;18.79;55.53
71195;BME280;58908;51.426;7.714;2023-05-19T11:10:04;100509.69;;;19.40;55.59
71195;BME280;58908;51.426;7.714;2023-05-19T11:12:39;100504.09;;;18.99;54.92
71195;BME280;58908;51.426;7.714;2023-05-19T11:15:07;100505.78;;;19.11;56.06
71195;BME280;58908;51.426;7.714;2023-05-19T11:17:34;100505.72;;;18.34;55.77
71195;BME280;58908;51.426;7.714;2023-05-19T11:20:01;100507.78;;;18.30;55.43
71195;BME280;58908;51.426;7.714;2023-05-19T11:22:28;100500.75;;;18.40;54.62
71195;BME280;58908;51.426;7.714;2023-05-19T11:24:54;100493.28;;;18.56;54.80
71195;BME280;58908;51.426;7.714;2023-05-19T11:27:24;100506.00;;;18.53;54.97
71195;BME280;58908;51.426;7.714;2023-05-19T11:29:53;100499.53;;;17.99;54.95
71195;BME280;58908;51.426;7.714;2023-05-19T11:32:20;100497.13;;;18.07;54.25
71195;BME280;58908;51.426;7.714;2023-05-19T11:34:47;100493.16;;;17.89;55.45
71195;BME280;58908;51.426;7.714;2023-05-19T11:37:14;100496.47;;;17.92;54.59
71195;BME280;58908;51.426;7.714;2023-05-19T11:39:40;100499.91;;;18.29;55.46
71195;BME280;58908;51.426;7.714;2023-05-19T11:42:07;100496.88;;;18.33;53.97
71195;BME280;58908;51.426;7.714;2023-05-19T11:44:34;100486.56;;;18.05;53.97
71195;BME280;58908;51.426;7.714;2023-05-19T11:47:03;100480.91;;;18.21;54.19
71195;BME280;58908;51.426;7.714;2023-05-19T11:49:30;100488.56;;;18.25;54.28
71195;BME280;58908;51.426;7.714;2023-05-19T11:51:56;100478.97;;;18.23;53.01
71195;BME280;58908;51.426;7.714;2023-05-19T11:54:27;100486.69;;;18.15;51.90
71195;BME280;58908;51.426;7.714;2023-05-19T11:56:54;100468.88;;;18.26;53.04
71195;BME280;58908;51.426;7.714;2023-05-19T11:59:27;100472.63;;;18.24;53.43
71195;BME280;58908;51.426;7.714;2023-05-19T12:01:54;100470.28;;;18.08;52.72
71195;BME280;58908;51.426;7.714;2023-05-19T12:04:21;100475.06;;;18.27;53.12
71195;BME280;58908;51.426;7.714;2023-05-19T12:06:48;100456.84;;;17.75;53.94
71195;BME280;58908;51.426;7.714;2023-05-19T12:09:14;100480.34;;;18.39;55.22
71195;BME280;58908;51.426;7.714;2023-05-19T12:11:40;100473.06;;;18.30;53.54
71195;BME280;58908;51.426;7.714;2023-05-19T12:14:08;100458.31;;;18.25;51.56
71195;BME280;58908;51.426;7.714;2023-05-19T12:16:35;100467.72;;;18.41;52.94
71195;BME280;58908;51.426;7.714;2023-05-19T12:19:04;100462.38;;;18.41;51.57
71195;BME280;58908;51.426;7.714;2023-05-19T12:21:31;100454.72;;;18.37;53.13
71195;BME280;58908;51.426;7.714;2023-05-19T12:23:58;100459.13;;;18.60;53.93
71195;BME280;58908;51.426;7.714;2023-05-19T12:26:24;100449.66;;;18.10;52.20
71195;BME280;58908;51.426;7.714;2023-05-19T12:28:51;100445.16;;;18.78;52.72
71195;BME280;58908;51.426;7.714;2023-05-19T12:31:17;100439.22;;;18.53;52.73
71195;BME280;58908;51.426;7.714;2023-05-19T12:33:44;100439.06;;;18.65;52.47
71195;BME280;58908;51.426;7.714;2023-05-19T12:36:11;100427.03;;;18.38;53.02
71195;BME280;58908;51.426;7.714;2023-05-19T12:38:39;100439.28;;;19.06;51.96
71195;BME280;58908;51.426;7.714;2023-05-19T12:41:06;100432.72;;;19.21;53.35
71195;BME280;58908;51.426;7.714;2023-05-19T12:43:32;100439.81;;;19.00;53.52
71195;BME280;58908;51.426;7.714;2023-05-19T12:46:07;100435.44;;;18.66;52.50
71195;BME280;58908;51.426;7.714;2023-05-19T12:48:34;100429.00;;;18.47;51.93
71195;BME280;58908;51.426;7.714;2023-05-19T12:51:00;100420.75;;;18.39;50.54